createdAt,value
2019-02-22T00:01:09.101Z,31.00
2019-02-22T00:03:35.820Z,30.73
2019-02-22T00:06:02.616Z,31.93
2019-02-22T00:08:29.315Z,31.47
2019-02-22T00:10:56.023Z,30.40
2019-02-22T00:13:22.731Z,32.23
2019-02-22T00:15:49.427Z,32.13
2019-02-22T00:18:16.160Z,32.20
2019-02-22T00:20:42.943Z,31.43
2019-02-22T00:23:09.636Z,30.80
2019-02-22T00:25:36.331Z,31.90
2019-02-22T00:28:03.020Z,31.93
2019-02-22T00:30:29.727Z,32.17
2019-02-22T00:32:56.539Z,30.17
2019-02-22T00:35:23.347Z,31.70
2019-02-22T00:37:50.151Z,31.50
2019-02-22T00:40:16.951Z,30.87
2019-02-22T00:42:43.748Z,31.23
2019-02-22T00:45:10.442Z,30.83
2019-02-22T00:47:37.145Z,32.77
2019-02-22T00:50:04.491Z,32.07
2019-02-22T00:52:31.203Z,31.77
2019-02-22T00:54:57.903Z,32.67
2019-02-22T00:57:24.595Z,33.73
2019-02-22T00:59:51.301Z,32.67
2019-02-22T01:02:18.002Z,33.03
2019-02-22T01:04:44.791Z,33.57
2019-02-22T01:07:11.531Z,32.43
2019-02-22T01:09:38.231Z,34.23
2019-02-22T01:12:05.081Z,31.60
2019-02-22T01:14:31.823Z,31.77
2019-02-22T01:16:58.518Z,32.23
2019-02-22T01:19:25.220Z,33.00
2019-02-22T01:21:51.919Z,33.27
2019-02-22T01:24:18.613Z,34.50
2019-02-22T01:26:45.319Z,33.93
2019-02-22T01:29:12.027Z,34.13
2019-02-22T01:31:38.731Z,33.87
2019-02-22T01:34:05.437Z,33.47
2019-02-22T01:36:32.147Z,36.43
2019-02-22T01:38:58.849Z,34.53
2019-02-22T01:41:25.544Z,33.67
2019-02-22T01:43:52.252Z,34.80
2019-02-22T01:46:18.976Z,35.73
2019-02-22T01:48:45.683Z,34.90
2019-02-22T01:51:12.383Z,34.83
2019-02-22T01:53:39.091Z,36.60
2019-02-22T01:56:05.793Z,35.73
2019-02-22T01:58:32.499Z,36.47
2019-02-22T02:00:59.407Z,37.23
2019-02-22T02:03:26.109Z,36.37
2019-02-22T02:05:52.819Z,36.23
2019-02-22T02:08:19.523Z,35.47
2019-02-22T02:10:53.937Z,36.20
2019-02-22T02:13:14.934Z,36.53
2019-02-22T02:15:41.639Z,38.33
2019-02-22T02:18:08.366Z,37.00
2019-02-22T02:20:35.147Z,37.23
2019-02-22T02:23:01.939Z,37.37
2019-02-22T02:25:28.653Z,39.27
2019-02-22T02:27:55.356Z,37.90
2019-02-22T02:30:22.069Z,39.60
2019-02-22T02:32:48.864Z,38.87
2019-02-22T02:35:15.555Z,38.97
2019-02-22T02:37:42.260Z,38.67
2019-02-22T02:40:09.054Z,39.10
2019-02-22T02:42:35.752Z,39.47
2019-02-22T02:45:02.811Z,37.00
2019-02-22T02:47:29.508Z,39.23
2019-02-22T02:49:56.321Z,39.93
2019-02-22T02:52:23.027Z,39.87
2019-02-22T02:54:49.730Z,40.50
2019-02-22T02:57:16.443Z,41.17
2019-02-22T02:59:43.136Z,41.40
2019-02-22T03:02:17.644Z,40.47
2019-02-22T03:04:44.548Z,40.97
2019-02-22T03:07:33.759Z,39.80
2019-02-22T03:10:00.463Z,38.00
2019-02-22T03:12:27.155Z,41.50
2019-02-22T03:14:53.856Z,40.03
2019-02-22T03:17:20.790Z,39.63
2019-02-22T03:19:47.489Z,41.93
2019-02-22T03:22:14.183Z,38.87
2019-02-22T03:24:40.879Z,41.20
2019-02-22T03:27:07.593Z,42.17
2019-02-22T03:29:34.288Z,41.07
2019-02-22T03:32:01.010Z,41.70
2019-02-22T03:34:27.701Z,43.67
2019-02-22T03:36:54.415Z,43.80
2019-02-22T03:39:21.124Z,42.83
2019-02-22T03:41:47.819Z,42.73
2019-02-22T03:44:14.519Z,43.00
2019-02-22T03:46:41.221Z,44.33
2019-02-22T03:49:07.922Z,41.70
2019-02-22T03:51:34.723Z,42.63
2019-02-22T03:54:02.843Z,43.63
2019-02-22T03:56:29.651Z,42.50
2019-02-22T03:58:56.859Z,43.80
2019-02-22T04:01:23.667Z,42.13
2019-02-22T04:03:50.474Z,46.13
2019-02-22T04:06:17.191Z,44.07
2019-02-22T04:08:43.901Z,42.57
2019-02-22T04:11:10.607Z,43.13
2019-02-22T04:13:37.315Z,42.80
2019-02-22T04:16:04.013Z,43.40
2019-02-22T04:18:30.720Z,42.30
2019-02-22T04:20:58.248Z,43.30
2019-02-22T04:23:24.940Z,43.70
2019-02-22T04:25:51.690Z,43.87
2019-02-22T04:28:18.455Z,45.10
2019-02-22T04:30:45.160Z,45.73
2019-02-22T04:33:11.859Z,44.77
2019-02-22T04:35:38.565Z,46.73
2019-02-22T04:38:05.267Z,45.70
2019-02-22T04:40:31.963Z,46.70
2019-02-22T04:42:58.662Z,46.87
2019-02-22T04:45:25.367Z,45.77
2019-02-22T04:47:52.063Z,46.90
2019-02-22T04:50:18.762Z,47.20
2019-02-22T04:52:45.484Z,48.00
2019-02-22T04:55:12.187Z,45.63
2019-02-22T04:57:38.887Z,46.30
2019-02-22T05:00:06.720Z,46.50
2019-02-22T05:02:33.415Z,46.40
2019-02-22T05:05:00.292Z,46.03
2019-02-22T05:07:27.052Z,48.17
2019-02-22T05:09:53.761Z,47.50
2019-02-22T05:12:20.466Z,45.87
2019-02-22T05:14:47.164Z,45.27
2019-02-22T05:17:13.882Z,46.47
2019-02-22T05:19:40.583Z,48.37
2019-02-22T05:22:07.286Z,49.03
2019-02-22T05:24:34.000Z,48.57
2019-02-22T05:27:00.711Z,46.07
2019-02-22T05:29:27.415Z,47.10
2019-02-22T05:31:54.124Z,46.03
2019-02-22T05:34:20.827Z,47.60
2019-02-22T05:36:47.541Z,44.40
2019-02-22T05:39:18.934Z,46.30
2019-02-22T05:41:42.835Z,43.37
2019-02-22T05:44:09.540Z,44.20
2019-02-22T05:46:36.239Z,44.40
2019-02-22T05:49:02.948Z,44.53
2019-02-22T05:51:49.319Z,44.50
2019-02-22T05:54:16.007Z,44.70
2019-02-22T05:56:42.711Z,42.27
2019-02-22T05:59:09.396Z,42.80
2019-02-22T06:01:36.094Z,45.43
2019-02-22T06:04:03.224Z,40.90
2019-02-22T06:06:30.217Z,44.20
2019-02-22T06:08:57.125Z,43.43
2019-02-22T06:11:23.909Z,45.47
2019-02-22T06:13:50.611Z,42.30
2019-02-22T06:16:17.295Z,42.90
2019-02-22T06:18:44.006Z,42.83
2019-02-22T06:21:10.718Z,42.87
2019-02-22T06:23:37.410Z,42.20
2019-02-22T06:26:04.145Z,43.10
2019-02-22T06:28:30.924Z,42.77
2019-02-22T06:30:57.629Z,42.00
2019-02-22T06:33:24.323Z,43.83
2019-02-22T06:35:51.022Z,41.47
2019-02-22T06:38:17.711Z,44.40
2019-02-22T06:40:44.420Z,40.47
2019-02-22T06:43:11.115Z,40.73
2019-02-22T06:45:38.111Z,42.20
2019-02-22T06:48:04.809Z,41.83
2019-02-22T06:50:34.023Z,42.53
2019-02-22T06:53:00.115Z,41.80
2019-02-22T06:55:26.825Z,40.83
2019-02-22T06:57:53.616Z,42.60
2019-02-22T07:00:20.321Z,43.33
2019-02-22T07:02:47.239Z,42.77
2019-02-22T07:05:13.934Z,40.30
2019-02-22T07:07:40.645Z,43.13
2019-02-22T07:10:07.783Z,41.43
2019-02-22T07:12:37.955Z,42.00
2019-02-22T07:15:05.104Z,42.00
2019-02-22T07:17:31.820Z,40.20
2019-02-22T07:19:58.508Z,40.60
2019-02-22T07:22:25.212Z,41.57
2019-02-22T07:24:51.923Z,39.53
2019-02-22T07:27:18.624Z,40.73
2019-02-22T07:29:45.339Z,40.20
2019-02-22T07:32:12.036Z,41.20
2019-02-22T07:34:38.740Z,40.43
2019-02-22T07:37:05.464Z,42.17
2019-02-22T07:39:32.276Z,40.77
2019-02-22T07:41:58.975Z,40.87
2019-02-22T07:44:25.663Z,39.63
2019-02-22T07:46:52.358Z,41.93
2019-02-22T07:49:22.123Z,40.43
2019-02-22T07:51:49.051Z,42.47
2019-02-22T07:54:15.828Z,40.43
2019-02-22T07:56:42.521Z,42.03
2019-02-22T07:59:09.235Z,38.87
2019-02-22T08:01:46.788Z,38.83
2019-02-22T08:04:04.573Z,40.07
2019-02-22T08:06:31.707Z,39.43
2019-02-22T08:08:58.420Z,38.97
2019-02-22T08:11:25.127Z,39.93
2019-02-22T08:13:51.839Z,39.90
2019-02-22T08:16:18.547Z,37.53
2019-02-22T08:18:45.287Z,38.13
2019-02-22T08:21:12.002Z,38.90
2019-02-22T08:23:38.695Z,38.07
2019-02-22T08:26:05.391Z,39.10
2019-02-22T08:28:32.214Z,37.73
2019-02-22T08:30:59.025Z,37.83
2019-02-22T08:33:25.733Z,38.33
2019-02-22T08:35:52.440Z,36.93
2019-02-22T08:38:19.149Z,42.00
2019-02-22T08:40:45.871Z,39.50
2019-02-22T08:43:12.586Z,37.77
2019-02-22T08:45:39.387Z,39.13
2019-02-22T08:48:06.080Z,39.20
2019-02-22T08:50:32.783Z,39.10
2019-02-22T08:52:59.488Z,37.73
2019-02-22T08:55:26.192Z,39.03
2019-02-22T08:57:52.889Z,38.83
2019-02-22T09:00:19.899Z,38.83
2019-02-22T09:02:46.599Z,39.67
2019-02-22T09:05:13.304Z,37.30
2019-02-22T09:07:40.023Z,39.43
2019-02-22T09:10:07.523Z,37.40
2019-02-22T09:12:34.626Z,37.83
2019-02-22T09:15:01.372Z,38.97
2019-02-22T09:17:28.171Z,37.03
2019-02-22T09:19:54.883Z,38.53
2019-02-22T09:22:23.164Z,37.63
2019-02-22T09:24:50.216Z,37.17
2019-02-22T09:27:16.936Z,36.87
2019-02-22T09:29:43.947Z,36.70
2019-02-22T09:32:10.650Z,38.50
2019-02-22T09:34:37.355Z,37.10
2019-02-22T09:37:04.164Z,36.33
2019-02-22T09:39:30.879Z,38.93
2019-02-22T09:41:57.595Z,36.33
2019-02-22T09:44:24.304Z,35.40
2019-02-22T09:46:51.005Z,36.77
2019-02-22T09:49:17.711Z,37.47
2019-02-22T09:51:44.419Z,35.90
2019-02-22T09:54:11.112Z,36.53
2019-02-22T09:56:37.815Z,37.73
2019-02-22T09:59:04.527Z,38.70
2019-02-22T10:01:31.235Z,35.97
2019-02-22T10:03:57.959Z,36.90
2019-02-22T10:06:24.663Z,37.53
2019-02-22T10:08:51.367Z,35.53
2019-02-22T10:11:18.073Z,38.83
2019-02-22T10:13:44.776Z,37.93
2019-02-22T10:16:11.475Z,38.20
2019-02-22T10:18:38.188Z,36.07
2019-02-22T10:21:04.900Z,37.63
2019-02-22T10:23:31.597Z,36.17
2019-02-22T10:25:58.297Z,36.77
2019-02-22T10:28:24.999Z,37.73
2019-02-22T10:30:51.699Z,35.07
2019-02-22T10:33:18.432Z,36.67
2019-02-22T10:35:45.130Z,36.80
2019-02-22T10:38:11.827Z,35.97
2019-02-22T10:40:39.299Z,34.80
2019-02-22T10:43:06.447Z,36.47
2019-02-22T10:45:33.155Z,34.67
2019-02-22T10:47:59.855Z,37.13
2019-02-22T10:50:26.572Z,35.47
2019-02-22T10:53:01.884Z,36.17
2019-02-22T10:55:21.887Z,37.30
2019-02-22T10:57:48.563Z,37.73
2019-02-22T11:00:15.603Z,37.10
2019-02-22T11:02:42.312Z,35.83
2019-02-22T11:05:09.663Z,37.60
2019-02-22T11:07:37.243Z,37.33
2019-02-22T11:10:06.303Z,37.83
2019-02-22T11:12:33.090Z,37.47
2019-02-22T11:14:59.789Z,38.10
2019-02-22T11:17:26.495Z,36.17
2019-02-22T11:19:53.207Z,37.70
2019-02-22T11:22:19.925Z,38.10
2019-02-22T11:24:46.628Z,38.27
2019-02-22T11:27:13.324Z,39.43
2019-02-22T11:29:40.043Z,38.57
2019-02-22T11:32:06.848Z,38.87
2019-02-22T11:34:33.579Z,40.33
2019-02-22T11:37:00.291Z,40.50
2019-02-22T11:39:26.991Z,38.13
2019-02-22T11:41:53.737Z,38.37
2019-02-22T11:44:20.460Z,39.03
2019-02-22T11:46:47.151Z,39.30
2019-02-22T11:49:14.103Z,39.60
2019-02-22T11:51:40.807Z,37.77
2019-02-22T11:54:07.535Z,39.63
2019-02-22T11:56:34.340Z,39.40
2019-02-22T11:59:01.252Z,36.87
2019-02-22T12:01:28.067Z,38.57
2019-02-22T12:03:54.784Z,38.60
2019-02-22T12:06:21.503Z,39.60
2019-02-22T12:08:48.229Z,36.60
2019-02-22T12:11:15.032Z,34.70
2019-02-22T12:13:41.728Z,35.47
2019-02-22T12:16:08.430Z,35.47
2019-02-22T12:18:36.536Z,38.17
2019-02-22T12:21:03.602Z,35.83
2019-02-22T12:23:30.311Z,37.37
2019-02-22T12:25:57.007Z,37.13
2019-02-22T12:28:23.711Z,38.63
2019-02-22T12:30:50.411Z,40.90
2019-02-22T12:33:17.114Z,41.53
2019-02-22T12:35:44.059Z,38.63
2019-02-22T12:38:10.768Z,39.27
2019-02-22T12:40:37.568Z,40.77
2019-02-22T12:43:04.370Z,38.50
2019-02-22T12:45:31.080Z,39.23
2019-02-22T12:47:57.779Z,37.90
2019-02-22T12:50:24.490Z,37.83
2019-02-22T12:52:51.211Z,36.87
2019-02-22T12:55:18.013Z,35.90
2019-02-22T12:57:44.708Z,34.20
2019-02-22T13:00:11.896Z,36.03
2019-02-22T13:02:38.599Z,36.00
2019-02-22T13:05:06.735Z,36.03
2019-02-22T13:07:33.424Z,36.70
2019-02-22T13:10:00.311Z,37.03
2019-02-22T13:12:27.242Z,34.50
2019-02-22T13:14:53.943Z,30.77
2019-02-22T13:17:30.509Z,31.00
2019-02-22T13:19:49.257Z,32.43
2019-02-22T13:22:16.364Z,31.20
2019-02-22T13:24:43.075Z,30.73
2019-02-22T13:27:09.786Z,29.07
2019-02-22T13:29:36.500Z,29.43
2019-02-22T13:32:03.325Z,30.73
2019-02-22T13:34:30.026Z,31.07
2019-02-22T13:36:56.731Z,29.70
2019-02-22T13:39:23.435Z,30.17
2019-02-22T13:41:50.134Z,29.90
2019-02-22T13:44:16.879Z,30.07
2019-02-22T13:46:43.579Z,29.77
2019-02-22T13:49:10.380Z,28.83
2019-02-22T13:51:37.087Z,30.33
2019-02-22T13:54:03.786Z,30.37
2019-02-22T13:56:30.509Z,31.00
2019-02-22T13:58:57.191Z,31.87
2019-02-22T14:01:23.999Z,30.83
2019-02-22T14:03:50.983Z,32.03
2019-02-22T14:06:17.765Z,33.93
2019-02-22T14:08:44.808Z,36.13
2019-02-22T14:11:12.182Z,33.93
2019-02-22T14:13:39.127Z,33.83
2019-02-22T14:16:05.932Z,35.17
2019-02-22T14:18:32.732Z,35.30
2019-02-22T14:20:59.440Z,36.60
2019-02-22T14:23:26.151Z,35.60
2019-02-22T14:25:53.385Z,36.10
2019-02-22T14:28:20.080Z,36.57
2019-02-22T14:30:46.787Z,35.50
2019-02-22T14:33:13.492Z,35.07
2019-02-22T14:35:40.191Z,36.27
2019-02-22T14:38:06.890Z,35.20
2019-02-22T14:40:33.626Z,36.20
2019-02-22T14:43:00.339Z,38.37
2019-02-22T14:45:27.128Z,37.00
2019-02-22T14:47:53.846Z,38.63
2019-02-22T14:50:23.031Z,38.07
2019-02-22T14:52:49.151Z,38.33
2019-02-22T14:55:15.844Z,37.80
2019-02-22T14:57:45.046Z,38.03
2019-02-22T15:00:13.519Z,38.47
2019-02-22T15:02:40.227Z,38.13
2019-02-22T15:05:09.126Z,37.70
2019-02-22T15:07:35.999Z,39.67
2019-02-22T15:10:03.705Z,40.17
2019-02-22T15:12:30.520Z,38.03
2019-02-22T15:14:57.224Z,39.10
2019-02-22T15:17:46.467Z,38.37
2019-02-22T15:20:13.369Z,37.80
2019-02-22T15:22:40.076Z,38.23
2019-02-22T15:25:07.951Z,37.73
2019-02-22T15:27:36.382Z,38.13
2019-02-22T15:30:03.844Z,37.90
2019-02-22T15:32:30.623Z,35.90
2019-02-22T15:34:57.323Z,36.37
2019-02-22T15:37:24.037Z,37.73
2019-02-22T15:39:50.735Z,35.67
2019-02-22T15:42:17.872Z,37.57
2019-02-22T15:44:44.591Z,36.57
2019-02-22T15:47:12.158Z,36.67
2019-02-22T15:49:39.239Z,37.40
2019-02-22T15:52:05.985Z,33.37
2019-02-22T15:54:32.755Z,36.67
2019-02-22T15:56:59.451Z,35.33
2019-02-22T15:59:26.235Z,37.37
2019-02-22T16:01:55.865Z,35.43
2019-02-22T16:04:36.539Z,35.03
2019-02-22T16:07:03.344Z,32.13
2019-02-22T16:09:30.188Z,33.90
2019-02-22T16:11:57.079Z,33.20
2019-02-22T16:14:23.843Z,34.67
2019-02-22T16:16:50.680Z,30.57
2019-02-22T16:19:17.371Z,30.83
2019-02-22T16:21:44.075Z,31.90
2019-02-22T16:24:10.875Z,32.77
2019-02-22T16:26:37.827Z,32.33
2019-02-22T16:29:24.178Z,32.60
2019-02-22T16:31:50.973Z,32.10
2019-02-22T16:34:17.667Z,31.70
2019-02-22T16:36:44.364Z,33.83
2019-02-22T16:39:11.051Z,32.00
2019-02-22T16:41:37.760Z,34.57
2019-02-22T16:44:04.447Z,32.80
2019-02-22T16:46:34.869Z,32.83
2019-02-22T16:48:59.792Z,34.47
2019-02-22T16:51:26.500Z,33.10
2019-02-22T16:53:53.215Z,33.63
2019-02-22T16:56:19.919Z,33.83
2019-02-22T16:58:46.647Z,32.80
2019-02-22T17:01:13.363Z,32.10
2019-02-22T17:03:40.051Z,34.87
2019-02-22T17:06:06.984Z,34.30
2019-02-22T17:08:33.681Z,35.17
2019-02-22T17:11:00.379Z,34.27
2019-02-22T17:13:27.075Z,32.83
2019-02-22T17:15:53.779Z,33.50
2019-02-22T17:18:20.472Z,34.73
2019-02-22T17:20:47.179Z,35.03
2019-02-22T17:23:13.859Z,33.37
2019-02-22T17:25:40.650Z,34.27
2019-02-22T17:28:07.331Z,32.77
2019-02-22T17:30:34.039Z,34.97
2019-02-22T17:33:00.735Z,35.03
2019-02-22T17:35:27.431Z,36.30
2019-02-22T17:37:54.124Z,34.17
2019-02-22T17:40:21.338Z,36.17
2019-02-22T17:42:48.168Z,34.70
2019-02-22T17:45:15.437Z,36.17
2019-02-22T17:47:42.143Z,35.30
2019-02-22T17:50:09.059Z,34.17
2019-02-22T17:52:35.820Z,34.43
2019-02-22T17:55:02.735Z,34.87
2019-02-22T17:57:29.430Z,36.47
2019-02-22T17:59:56.122Z,33.90
2019-02-22T18:02:22.818Z,34.90
2019-02-22T18:04:49.605Z,35.03
2019-02-22T18:07:16.611Z,36.70
2019-02-22T18:09:43.308Z,34.40
2019-02-22T18:12:29.655Z,36.07
2019-02-22T18:14:56.347Z,34.83
2019-02-22T18:17:23.135Z,35.73
2019-02-22T18:19:50.298Z,38.20
2019-02-22T18:22:25.378Z,39.67
2019-02-22T18:24:45.592Z,41.18
2019-02-22T18:27:12.280Z,37.57
2019-02-22T18:29:38.985Z,36.30
2019-02-22T18:32:05.693Z,35.87
2019-02-22T18:34:32.407Z,36.63
2019-02-22T18:36:59.209Z,35.37
2019-02-22T18:39:25.904Z,36.47
2019-02-22T18:41:52.592Z,36.63
2019-02-22T18:44:19.531Z,38.03
2019-02-22T18:46:46.579Z,36.03
2019-02-22T18:49:13.356Z,38.17
2019-02-22T18:51:40.052Z,38.57
2019-02-22T18:54:06.759Z,37.10
2019-02-22T18:56:33.443Z,36.30
2019-02-22T18:59:00.141Z,34.67
2019-02-22T19:01:26.848Z,33.33
2019-02-22T19:03:53.563Z,36.23
2019-02-22T19:06:20.259Z,36.17
2019-02-22T19:08:46.968Z,34.73
2019-02-22T19:11:13.660Z,37.73
2019-02-22T19:13:40.367Z,32.77
2019-02-22T19:16:07.459Z,35.40
2019-02-22T19:18:34.713Z,36.27
2019-02-22T19:21:01.404Z,31.73
2019-02-22T19:26:11.367Z,34.27
2019-02-22T19:28:38.059Z,33.90
2019-02-22T19:31:04.763Z,32.57
2019-02-22T19:33:31.459Z,31.53
2019-02-22T19:35:58.153Z,30.07
2019-02-22T19:38:24.926Z,30.63
2019-02-22T19:40:51.609Z,29.93
2019-02-22T19:43:18.307Z,31.93
2019-02-22T19:45:45.007Z,32.03
2019-02-22T19:48:11.699Z,31.67
2019-02-22T19:50:41.450Z,30.70
2019-02-22T19:53:07.008Z,30.77
2019-02-22T19:55:33.707Z,31.90
2019-02-22T19:58:00.403Z,30.53
2019-02-22T20:00:27.432Z,29.30
2019-02-22T20:02:54.464Z,29.90
2019-02-22T20:05:21.172Z,29.43
2019-02-22T20:07:48.075Z,30.43
2019-02-22T20:10:18.248Z,29.90
2019-02-22T20:12:43.780Z,24.97
2019-02-22T20:15:11.691Z,27.53
2019-02-22T20:17:40.288Z,28.17
2019-02-22T20:20:09.467Z,29.00
2019-02-22T20:22:36.183Z,25.93
2019-02-22T20:25:03.616Z,28.33
2019-02-22T20:27:30.319Z,26.70
2019-02-22T20:29:57.027Z,24.20
2019-02-22T20:32:23.733Z,27.10
2019-02-22T20:34:50.431Z,29.07
2019-02-22T20:37:17.254Z,25.87
2019-02-22T20:39:44.288Z,25.70
2019-02-22T20:42:10.994Z,28.53
2019-02-22T20:44:38.820Z,24.40
2019-02-22T20:47:05.639Z,26.67
2019-02-22T20:49:32.355Z,28.80
2019-02-22T20:51:59.055Z,26.17
2019-02-22T20:54:26.163Z,24.33
2019-02-22T20:56:52.871Z,26.53
2019-02-22T20:59:19.581Z,26.33
2019-02-22T21:01:46.369Z,26.87
2019-02-22T21:04:13.523Z,26.20
2019-02-22T21:06:59.877Z,26.73
2019-02-22T21:09:26.566Z,25.23
2019-02-22T21:11:53.263Z,27.00
2019-02-22T21:14:20.203Z,26.73
2019-02-22T21:16:46.892Z,25.10
2019-02-22T21:19:13.853Z,25.20
2019-02-22T21:21:41.091Z,26.77
2019-02-22T21:24:07.795Z,25.53
2019-02-22T21:26:34.588Z,24.37
2019-02-22T21:29:01.298Z,25.20
2019-02-22T21:31:28.007Z,26.37
2019-02-22T21:33:55.099Z,27.57
2019-02-22T21:36:21.891Z,27.20
2019-02-22T21:38:48.595Z,28.13
2019-02-22T21:41:16.466Z,28.27
2019-02-22T21:43:43.295Z,27.20
2019-02-22T21:46:10.347Z,30.33
2019-02-22T21:48:37.056Z,28.47
2019-02-22T21:51:03.772Z,26.10
2019-02-22T21:53:30.551Z,25.87
2019-02-22T21:55:57.692Z,26.03
2019-02-22T21:58:24.622Z,26.47
2019-02-22T22:00:51.331Z,25.77
2019-02-22T22:03:18.048Z,26.73
2019-02-22T22:05:44.735Z,25.43
2019-02-22T22:08:11.448Z,25.97
2019-02-22T22:10:38.143Z,26.70
2019-02-22T22:13:05.191Z,24.70
2019-02-22T22:15:31.894Z,25.47
2019-02-22T22:17:58.688Z,24.87
2019-02-22T22:20:25.379Z,28.37
2019-02-22T22:22:52.067Z,27.77
2019-02-22T22:25:19.195Z,26.47
2019-02-22T22:27:45.891Z,26.73
2019-02-22T22:30:12.886Z,26.70
2019-02-22T22:32:39.700Z,26.00
2019-02-22T22:35:07.740Z,25.90
2019-02-22T22:37:34.427Z,26.33
2019-02-22T22:40:01.134Z,28.60
2019-02-22T22:42:27.827Z,28.23
2019-02-22T22:44:54.604Z,28.93
2019-02-22T22:47:21.359Z,28.73
2019-02-22T22:49:48.075Z,26.13
2019-02-22T22:52:14.784Z,29.07
2019-02-22T22:54:41.487Z,28.43
2019-02-22T22:57:08.231Z,27.87
2019-02-22T22:59:35.015Z,27.13
2019-02-22T23:02:02.014Z,28.67
2019-02-22T23:04:28.707Z,27.40
2019-02-22T23:06:55.495Z,26.97
2019-02-22T23:09:24.082Z,27.87
2019-02-22T23:11:51.082Z,25.57
2019-02-22T23:14:17.891Z,26.73
2019-02-22T23:16:44.723Z,27.43
2019-02-22T23:19:11.772Z,27.20
2019-02-22T23:21:38.579Z,29.70
2019-02-22T23:24:05.299Z,28.63
2019-02-22T23:26:32.003Z,28.70
2019-02-22T23:28:58.703Z,28.40
2019-02-22T23:31:25.410Z,29.93
2019-02-22T23:33:52.137Z,33.10
2019-02-22T23:36:18.832Z,28.93
2019-02-22T23:38:45.531Z,30.67
2019-02-22T23:41:12.231Z,30.40
2019-02-22T23:43:38.931Z,29.60
2019-02-22T23:46:05.651Z,29.00
2019-02-22T23:48:32.347Z,29.90
2019-02-22T23:50:59.055Z,31.80
2019-02-22T23:53:25.759Z,29.97
2019-02-22T23:55:52.455Z,29.53
2019-02-22T23:58:19.150Z,31.33
